Karibu — 9HB3139 — position and weather

sailwx.info

Track history (hours):
 
Tides and Currents Weather Stations Pressure Air Temp Water Temp Dewpoint Dewpoint Depression Visibility Wind Speed Wind Dir Waves Ship Positions

Karibu

Last reported at 2018-Jun-18 14:36 UTC. Time now 2018-Jun-21 14:30 UTC.
Position N 39°15' E 003°05'.

Length 27 m.

MMSI: 249000904.

Date/timePositionNaut miles runAvg speedWind from/ knotsBaromVisibWave heightAir tempDewpointWater temp
2018-Jun-18 14:36N 39°15' E 003°05'0 1.2
2018-Jun-18 14:25N 39°15' E 003°04'4 8.0
2018-Jun-18 13:55N 39°16' E 002°60'3 7.6
2018-Jun-18 13:28N 39°18' E 002°56'4 7.9
2018-Jun-18 12:59N 39°20' E 002°51'4 7.6
2018-Jun-18 12:30N 39°21' E 002°47'4 8.8
2018-Jun-18 12:00N 39°24' E 002°43'3 5.6
2018-Jun-18 11:30N 39°27' E 002°41'4 8.3
2018-Jun-18 11:00N 39°31' E 002°40'3 6.1
2018-Jun-18 10:28N 39°34' E 002°38'0 0.0
2018-Jun-18 09:58N 39°34' E 002°38'0 0.0
2018-Jun-18 09:28N 39°34' E 002°38'0 0.0
2018-Jun-18 08:58N 39°34' E 002°38'0 0.0
2018-Jun-18 08:28N 39°34' E 002°38'0 0.4
2018-Jun-18 07:58N 39°34' E 002°38'0 0.1
2018-Jun-18 07:28N 39°34' E 002°38'0 0.0
2018-Jun-18 06:58N 39°34' E 002°38'0 0.0
2018-Jun-18 06:28N 39°34' E 002°38'  
Track history (hours):
 
Tides and Currents Weather Stations Pressure Air Temp Water Temp Dewpoint Dewpoint Depression Visibility Wind Speed Wind Dir Waves Ship Positions

Karibu

Last reported at 2018-Jun-18 14:36 UTC. Time now 2018-Jun-21 14:30 UTC.
Position N 39°15' E 003°05'.

Length 27 m.

MMSI: 249000904.

Date/timePositionNaut miles runAvg speedWind from/ knotsBaromVisibWave heightAir tempDewpointWater temp
2018-Jun-18 14:36N 39°15' E 003°05'0 1.2
2018-Jun-18 14:25N 39°15' E 003°04'4 8.0
2018-Jun-18 13:55N 39°16' E 002°60'3 7.6
2018-Jun-18 13:28N 39°18' E 002°56'4 7.9
2018-Jun-18 12:59N 39°20' E 002°51'4 7.6
2018-Jun-18 12:30N 39°21' E 002°47'4 8.8
2018-Jun-18 12:00N 39°24' E 002°43'3 5.6
2018-Jun-18 11:30N 39°27' E 002°41'4 8.3
2018-Jun-18 11:00N 39°31' E 002°40'3 6.1
2018-Jun-18 10:28N 39°34' E 002°38'0 0.0
2018-Jun-18 09:58N 39°34' E 002°38'0 0.0
2018-Jun-18 09:28N 39°34' E 002°38'0 0.0
2018-Jun-18 08:58N 39°34' E 002°38'0 0.0
2018-Jun-18 08:28N 39°34' E 002°38'0 0.4
2018-Jun-18 07:58N 39°34' E 002°38'0 0.1
2018-Jun-18 07:28N 39°34' E 002°38'0 0.0
2018-Jun-18 06:58N 39°34' E 002°38'0 0.0
2018-Jun-18 06:28N 39°34' E 002°38'  

Dump ship's entire track history